Terminal Aerodrome Forecast
Issued by NWS

Home | Current Version | Previous Version | Text Only | Print | Product List | Glossary On
Versions: 1 2 3 4 5 6 7 8 9 10 11 12 13 14 15 16 17 18 19 20 21 22 23 24 25 26 27 28 29 30 31 32 33 34 35 36 37 38 39 40 41 42 43 44 45 46 47 48 49 50
000
FTUS43 KDDC 242053 AAA
TAFGCK
TAF AMD
KGCK 242053Z 2421/2518 13012KT P6SM OVC019
     FM242200 14013G19KT P6SM BKN030
     FM250200 14013KT P6SM VCTS BKN070CB
     FM250600 16013KT 4SM BR OVC008
     FM251000 18010KT 2SM BR OVC003
     FM251500 18008KT P6SM BKN020=

USA.gov is the U.S. government's official web portal to all federal, state and local government web resources and services.